首页
METAR-TAF:

METAR-TAF

机场 :

格拉茨, 奥地利

纬度: 47-00N, 经度: 015-26E, 海拔: 340米

当前天气观测

该预报发布于26分钟前的04:20 UTC
风速2节,风向多变
温度 -4°C
湿度 86%
气压 1018 hPa
能见度10公里或以上

METAR: LOWG 210420Z AUTO VRB02KT 9999 NSC M04/M06 Q1018

时间: 05:46 (04:46 UTC)

预报

该预报发布于5小时和31分钟前的23:15 UTC
预报有效从21日的 00点(UTC)到 21日的 24点(UTC)
风速2节,风向多变
能见度10公里或以上
1500米以下无云,无积雨云
成为
从 21日的 07点(UTC)到 21日的 10点(UTC)
风速7节,风向北转西北
短暂存在
从 21日的 10点(UTC)到 21日的 17点(UTC)
风速15节,风向北转西北,有时为25节阵风
几率 30% :
短暂存在
从 21日的 12点(UTC)到 21日的 15点(UTC)
风速20节,风向,有时为30节阵风

TAF: LOWG 202315Z 2100/2124 VRB02KT CAVOK TX13/2114Z TNM02/2105Z BECMG 2107/2110 34007KT TEMPO 2110/2117 34015G25KT PROB30 TEMPO 2112/2115 35020G30KT

超过4000个机场的气象观测和天气预报(METAR&TAF报告)。

可查询的气象台以黄色和红色小点在地图上表示。

将鼠标移到小点上方,可查看气象台名称。

然后点击查看天气观测和预报。

如需切换地图:点击带黑十字的绿色按钮放大地图;点击带横线的绿色按钮缩小地图;或者点击绿色箭头查看邻近地区的地图。


METAR-TAF: